sensor_id;sensor_type;location;lat;lon;timestamp;pressure;altitude;pressure_sealevel;temperature
78905;BMP280;68291;49.602;8.722;2023-08-20T00:02:25;99879.25;;;25.37
78905;BMP280;68291;49.602;8.722;2023-08-20T00:05:52;99858.50;;;25.34
78905;BMP280;68291;49.602;8.722;2023-08-20T00:08:37;99869.53;;;25.38
78905;BMP280;68291;49.602;8.722;2023-08-20T00:11:37;99864.25;;;25.38
78905;BMP280;68291;49.602;8.722;2023-08-20T00:14:54;99863.44;;;25.37
78905;BMP280;68291;49.602;8.722;2023-08-20T00:18:07;99867.03;;;25.36
78905;BMP280;68291;49.602;8.722;2023-08-20T00:20:54;99863.44;;;25.37
78905;BMP280;68291;49.602;8.722;2023-08-20T00:23:33;99863.44;;;25.37
78905;BMP280;68291;49.602;8.722;2023-08-20T00:26:37;99862.09;;;25.33
78905;BMP280;68291;49.602;8.722;2023-08-20T00:29:19;99868.50;;;25.31
78905;BMP280;68291;49.602;8.722;2023-08-20T00:31:51;99873.09;;;25.29
78905;BMP280;68291;49.602;8.722;2023-08-20T00:34:31;99877.81;;;25.25
78905;BMP280;68291;49.602;8.722;2023-08-20T00:37:28;99877.47;;;25.20
78905;BMP280;68291;49.602;8.722;2023-08-20T00:40:20;99879.16;;;25.21
78905;BMP280;68291;49.602;8.722;2023-08-20T00:43:08;99881.25;;;25.18
78905;BMP280;68291;49.602;8.722;2023-08-20T00:46:03;99885.59;;;25.10
78905;BMP280;68291;49.602;8.722;2023-08-20T00:49:17;99882.22;;;25.00
78905;BMP280;68291;49.602;8.722;2023-08-20T00:52:39;99885.16;;;24.97
78905;BMP280;68291;49.602;8.722;2023-08-20T00:55:36;99887.09;;;24.95
78905;BMP280;68291;49.602;8.722;2023-08-20T00:58:22;99882.97;;;24.92
78905;BMP280;68291;49.602;8.722;2023-08-20T01:01:04;99887.69;;;24.89
78905;BMP280;68291;49.602;8.722;2023-08-20T01:03:45;99891.28;;;24.88
78905;BMP280;68291;49.602;8.722;2023-08-20T01:06:53;99886.03;;;24.88
78905;BMP280;68291;49.602;8.722;2023-08-20T01:09:50;99880.22;;;24.84
78905;BMP280;68291;49.602;8.722;2023-08-20T01:12:44;99871.63;;;24.82
78905;BMP280;68291;49.602;8.722;2023-08-20T01:15:44;99887.44;;;24.82
78905;BMP280;68291;49.602;8.722;2023-08-20T01:18:48;99879.97;;;24.78
78905;BMP280;68291;49.602;8.722;2023-08-20T01:22:19;99887.66;;;24.72
78905;BMP280;68291;49.602;8.722;2023-08-20T01:25:15;99887.81;;;24.70
78905;BMP280;68291;49.602;8.722;2023-08-20T01:28:30;99883.69;;;24.68
78905;BMP280;68291;49.602;8.722;2023-08-20T01:31:51;99882.56;;;24.70
78905;BMP280;68291;49.602;8.722;2023-08-20T01:34:36;99885.88;;;24.72
78905;BMP280;68291;49.602;8.722;2023-08-20T01:37:25;99885.31;;;24.69
78905;BMP280;68291;49.602;8.722;2023-08-20T01:40:29;99880.66;;;24.63
78905;BMP280;68291;49.602;8.722;2023-08-20T01:43:14;99877.94;;;24.55
78905;BMP280;68291;49.602;8.722;2023-08-20T01:45:59;99875.75;;;24.50
78905;BMP280;68291;49.602;8.722;2023-08-20T01:48:42;99878.81;;;24.46
78905;BMP280;68291;49.602;8.722;2023-08-20T01:51:24;99865.69;;;24.37
78905;BMP280;68291;49.602;8.722;2023-08-20T01:54:24;99861.94;;;24.39
78905;BMP280;68291;49.602;8.722;2023-08-20T01:57:08;99859.31;;;24.39
78905;BMP280;68291;49.602;8.722;2023-08-20T01:59:51;99857.94;;;24.35
78905;BMP280;68291;49.602;8.722;2023-08-20T02:02:44;99850.47;;;24.31
78905;BMP280;68291;49.602;8.722;2023-08-20T02:05:38;99850.09;;;24.26
78905;BMP280;68291;49.602;8.722;2023-08-20T02:08:26;99842.50;;;24.23
78905;BMP280;68291;49.602;8.722;2023-08-20T02:11:28;99844.00;;;24.16
78905;BMP280;68291;49.602;8.722;2023-08-20T02:14:04;99849.59;;;24.13
78905;BMP280;68291;49.602;8.722;2023-08-20T02:16:53;99853.78;;;24.06
78905;BMP280;68291;49.602;8.722;2023-08-20T02:20:02;99855.16;;;24.01
78905;BMP280;68291;49.602;8.722;2023-08-20T02:22:38;99849.09;;;24.00
78905;BMP280;68291;49.602;8.722;2023-08-20T02:25:19;99852.72;;;23.99
78905;BMP280;68291;49.602;8.722;2023-08-20T02:28:20;99855.59;;;23.96
78905;BMP280;68291;49.602;8.722;2023-08-20T02:31:25;99846.75;;;23.97
78905;BMP280;68291;49.602;8.722;2023-08-20T02:34:06;99850.75;;;24.01
78905;BMP280;68291;49.602;8.722;2023-08-20T02:36:42;99852.41;;;24.02
78905;BMP280;68291;49.602;8.722;2023-08-20T02:39:13;99856.97;;;24.00
78905;BMP280;68291;49.602;8.722;2023-08-20T02:41:59;99854.34;;;24.00
78905;BMP280;68291;49.602;8.722;2023-08-20T02:45:06;99863.06;;;24.01
78905;BMP280;68291;49.602;8.722;2023-08-20T02:47:41;99876.22;;;24.01
78905;BMP280;68291;49.602;8.722;2023-08-20T02:50:28;99877.19;;;24.00
78905;BMP280;68291;49.602;8.722;2023-08-20T02:53:32;99881.78;;;23.98
78905;BMP280;68291;49.602;8.722;2023-08-20T02:56:28;99885.41;;;23.97
78905;BMP280;68291;49.602;8.722;2023-08-20T02:59:15;99887.03;;;23.98
78905;BMP280;68291;49.602;8.722;2023-08-20T03:02:02;99881.78;;;23.98
78905;BMP280;68291;49.602;8.722;2023-08-20T03:04:47;99888.84;;;23.97
78905;BMP280;68291;49.602;8.722;2023-08-20T03:07:18;99880.97;;;23.97
78905;BMP280;68291;49.602;8.722;2023-08-20T03:10:49;99878.22;;;23.89
78905;BMP280;68291;49.602;8.722;2023-08-20T03:13:21;99879.03;;;23.90
78905;BMP280;68291;49.602;8.722;2023-08-20T03:16:18;99881.81;;;23.88
78905;BMP280;68291;49.602;8.722;2023-08-20T03:18:52;99870.19;;;23.81
78905;BMP280;68291;49.602;8.722;2023-08-20T03:21:37;99878.50;;;23.86
78905;BMP280;68291;49.602;8.722;2023-08-20T03:24:09;99877.41;;;23.79
78905;BMP280;68291;49.602;8.722;2023-08-20T03:27:31;99879.94;;;23.62
78905;BMP280;68291;49.602;8.722;2023-08-20T03:30:36;99878.03;;;23.55
78905;BMP280;68291;49.602;8.722;2023-08-20T03:33:41;99882.47;;;23.54
78905;BMP280;68291;49.602;8.722;2023-08-20T03:36:21;99885.19;;;23.53
78905;BMP280;68291;49.602;8.722;2023-08-20T03:39:36;99880.66;;;23.45
78905;BMP280;68291;49.602;8.722;2023-08-20T03:42:10;99868.63;;;23.43
78905;BMP280;68291;49.602;8.722;2023-08-20T03:45:22;99878.28;;;23.42
78905;BMP280;68291;49.602;8.722;2023-08-20T03:48:09;99884.91;;;23.46
78905;BMP280;68291;49.602;8.722;2023-08-20T03:51:04;99870.25;;;23.44
78905;BMP280;68291;49.602;8.722;2023-08-20T03:54:21;99883.28;;;23.45
78905;BMP280;68291;49.602;8.722;2023-08-20T03:57:16;99877.16;;;23.45
78905;BMP280;68291;49.602;8.722;2023-08-20T04:00:00;99868.19;;;23.47
78905;BMP280;68291;49.602;8.722;2023-08-20T04:03:13;99867.75;;;23.42
78905;BMP280;68291;49.602;8.722;2023-08-20T04:05:56;99888.25;;;23.39
78905;BMP280;68291;49.602;8.722;2023-08-20T04:08:55;99891.31;;;23.35
78905;BMP280;68291;49.602;8.722;2023-08-20T04:11:51;99886.88;;;23.35
78905;BMP280;68291;49.602;8.722;2023-08-20T04:14:38;99884.25;;;23.35
78905;BMP280;68291;49.602;8.722;2023-08-20T04:17:40;99883.97;;;23.38
78905;BMP280;68291;49.602;8.722;2023-08-20T04:20:24;99885.63;;;23.39
78905;BMP280;68291;49.602;8.722;2023-08-20T04:23:32;99889.38;;;23.37
78905;BMP280;68291;49.602;8.722;2023-08-20T04:26:40;99890.75;;;23.31
78905;BMP280;68291;49.602;8.722;2023-08-20T04:29:33;99891.75;;;23.30
78905;BMP280;68291;49.602;8.722;2023-08-20T04:32:38;99884.69;;;23.31
78905;BMP280;68291;49.602;8.722;2023-08-20T04:35:25;99887.84;;;23.34
78905;BMP280;68291;49.602;8.722;2023-08-20T04:38:35;99885.91;;;23.36
78905;BMP280;68291;49.602;8.722;2023-08-20T04:41:21;99891.72;;;23.39
78905;BMP280;68291;49.602;8.722;2023-08-20T04:44:05;99897.66;;;23.41
78905;BMP280;68291;49.602;8.722;2023-08-20T04:46:46;99890.31;;;23.45
78905;BMP280;68291;49.602;8.722;2023-08-20T04:49:53;99894.63;;;23.46
78905;BMP280;68291;49.602;8.722;2023-08-20T04:52:41;99898.06;;;23.46
78905;BMP280;68291;49.602;8.722;2023-08-20T04:55:21;99904.16;;;23.47
78905;BMP280;68291;49.602;8.722;2023-08-20T04:58:00;99907.88;;;23.44
78905;BMP280;68291;49.602;8.722;2023-08-20T05:00:39;99891.44;;;23.33
78905;BMP280;68291;49.602;8.722;2023-08-20T05:03:36;99907.09;;;23.35
78905;BMP280;68291;49.602;8.722;2023-08-20T05:06:32;99910.97;;;23.31
78905;BMP280;68291;49.602;8.722;2023-08-20T05:09:39;99926.16;;;23.27
78905;BMP280;68291;49.602;8.722;2023-08-20T05:12:13;99930.72;;;23.25
78905;BMP280;68291;49.602;8.722;2023-08-20T05:15:09;99931.00;;;23.22
78905;BMP280;68291;49.602;8.722;2023-08-20T05:17:54;99934.75;;;23.29
78905;BMP280;68291;49.602;8.722;2023-08-20T05:20:57;99934.06;;;23.37
78905;BMP280;68291;49.602;8.722;2023-08-20T05:23:45;99933.22;;;23.45
78905;BMP280;68291;49.602;8.722;2023-08-20T05:27:04;99930.19;;;23.50
78905;BMP280;68291;49.602;8.722;2023-08-20T05:30:09;99929.38;;;23.59
78905;BMP280;68291;49.602;8.722;2023-08-20T05:32:51;99937.09;;;23.70
78905;BMP280;68291;49.602;8.722;2023-08-20T05:35:37;99940.38;;;23.81
78905;BMP280;68291;49.602;8.722;2023-08-20T05:38:19;99941.03;;;23.92
78905;BMP280;68291;49.602;8.722;2023-08-20T05:41:05;99942.69;;;24.03
78905;BMP280;68291;49.602;8.722;2023-08-20T05:44:12;99937.41;;;24.12
78905;BMP280;68291;49.602;8.722;2023-08-20T05:46:59;99943.75;;;24.19
78905;BMP280;68291;49.602;8.722;2023-08-20T05:50:15;99947.06;;;24.21
78905;BMP280;68291;49.602;8.722;2023-08-20T05:53:03;99951.13;;;24.25
78905;BMP280;68291;49.602;8.722;2023-08-20T05:56:00;99951.50;;;24.30
78905;BMP280;68291;49.602;8.722;2023-08-20T05:59:00;99944.97;;;24.34
78905;BMP280;68291;49.602;8.722;2023-08-20T06:02:05;99953.13;;;24.40
78905;BMP280;68291;49.602;8.722;2023-08-20T06:04:53;99948.38;;;24.43
78905;BMP280;68291;49.602;8.722;2023-08-20T06:07:58;99949.22;;;24.44
78905;BMP280;68291;49.602;8.722;2023-08-20T06:10:38;99946.16;;;24.48
78905;BMP280;68291;49.602;8.722;2023-08-20T06:13:19;99936.69;;;24.55
78905;BMP280;68291;49.602;8.722;2023-08-20T06:16:19;99941.09;;;24.64
78905;BMP280;68291;49.602;8.722;2023-08-20T06:19:08;99945.47;;;24.73
78905;BMP280;68291;49.602;8.722;2023-08-20T06:21:44;99948.19;;;24.81
78905;BMP280;68291;49.602;8.722;2023-08-20T06:24:40;99948.16;;;24.90
78905;BMP280;68291;49.602;8.722;2023-08-20T06:27:45;99958.94;;;24.97
78905;BMP280;68291;49.602;8.722;2023-08-20T06:30:27;99956.41;;;25.05
78905;BMP280;68291;49.602;8.722;2023-08-20T06:33:14;99954.00;;;25.11
78905;BMP280;68291;49.602;8.722;2023-08-20T06:36:02;99962.81;;;25.19
78905;BMP280;68291;49.602;8.722;2023-08-20T06:39:03;99966.50;;;25.26
78905;BMP280;68291;49.602;8.722;2023-08-20T06:42:01;99970.88;;;25.35
78905;BMP280;68291;49.602;8.722;2023-08-20T06:44:57;99969.97;;;25.44
78905;BMP280;68291;49.602;8.722;2023-08-20T06:48:14;99969.06;;;25.53
78905;BMP280;68291;49.602;8.722;2023-08-20T06:51:10;99978.44;;;25.65
78905;BMP280;68291;49.602;8.722;2023-08-20T06:53:42;99975.56;;;25.76
78905;BMP280;68291;49.602;8.722;2023-08-20T06:56:13;99972.97;;;25.83
78905;BMP280;68291;49.602;8.722;2023-08-20T06:58:53;99968.78;;;25.98
78905;BMP280;68291;49.602;8.722;2023-08-20T07:01:38;99975.34;;;26.12
78905;BMP280;68291;49.602;8.722;2023-08-20T07:04:20;99974.91;;;26.24
78905;BMP280;68291;49.602;8.722;2023-08-20T07:07:21;99979.94;;;26.35
78905;BMP280;68291;49.602;8.722;2023-08-20T07:10:07;99983.31;;;26.45
78905;BMP280;68291;49.602;8.722;2023-08-20T07:12:48;99973.91;;;26.50
78905;BMP280;68291;49.602;8.722;2023-08-20T07:15:31;99977.88;;;26.54
78905;BMP280;68291;49.602;8.722;2023-08-20T07:18:29;99971.63;;;26.55
78905;BMP280;68291;49.602;8.722;2023-08-20T07:21:45;99973.28;;;26.56
78905;BMP280;68291;49.602;8.722;2023-08-20T07:25:15;99978.88;;;26.53
78905;BMP280;68291;49.602;8.722;2023-08-20T07:28:09;99984.47;;;26.50
78905;BMP280;68291;49.602;8.722;2023-08-20T07:30:53;99978.38;;;26.49
78905;BMP280;68291;49.602;8.722;2023-08-20T07:33:45;99974.44;;;26.53
78905;BMP280;68291;49.602;8.722;2023-08-20T07:36:38;99962.56;;;26.57
78905;BMP280;68291;49.602;8.722;2023-08-20T07:39:30;99962.28;;;26.68
78905;BMP280;68291;49.602;8.722;2023-08-20T07:42:10;99963.28;;;26.75
78905;BMP280;68291;49.602;8.722;2023-08-20T07:44:47;99968.94;;;26.80
78905;BMP280;68291;49.602;8.722;2023-08-20T07:47:33;99972.94;;;26.84
78905;BMP280;68291;49.602;8.722;2023-08-20T07:50:49;99971.31;;;26.91
78905;BMP280;68291;49.602;8.722;2023-08-20T07:53:35;99977.13;;;27.02
78905;BMP280;68291;49.602;8.722;2023-08-20T07:56:22;99973.38;;;27.13
78905;BMP280;68291;49.602;8.722;2023-08-20T07:59:30;99980.47;;;27.20
78905;BMP280;68291;49.602;8.722;2023-08-20T08:02:30;99976.69;;;27.30
78905;BMP280;68291;49.602;8.722;2023-08-20T08:05:10;99979.06;;;27.41
78905;BMP280;68291;49.602;8.722;2023-08-20T08:08:17;99979.41;;;27.54
78905;BMP280;68291;49.602;8.722;2023-08-20T08:11:02;99978.91;;;27.66
78905;BMP280;68291;49.602;8.722;2023-08-20T08:13:47;99982.88;;;27.78
78905;BMP280;68291;49.602;8.722;2023-08-20T08:16:47;99984.34;;;27.88
78905;BMP280;68291;49.602;8.722;2023-08-20T08:19:42;99987.19;;;28.03
78905;BMP280;68291;49.602;8.722;2023-08-20T08:22:16;99989.31;;;28.15
78905;BMP280;68291;49.602;8.722;2023-08-20T08:24:54;99986.97;;;28.28
78905;BMP280;68291;49.602;8.722;2023-08-20T08:27:42;99984.63;;;28.41
78905;BMP280;68291;49.602;8.722;2023-08-20T08:30:47;99992.03;;;28.53
78905;BMP280;68291;49.602;8.722;2023-08-20T08:34:27;99988.69;;;28.67
78905;BMP280;68291;49.602;8.722;2023-08-20T08:36:58;99989.47;;;28.83
78905;BMP280;68291;49.602;8.722;2023-08-20T08:40:10;99992.22;;;28.97
78905;BMP280;68291;49.602;8.722;2023-08-20T08:43:04;99990.53;;;29.12
78905;BMP280;68291;49.602;8.722;2023-08-20T08:45:36;99988.31;;;29.24
78905;BMP280;68291;49.602;8.722;2023-08-20T08:48:17;99988.88;;;29.33
78905;BMP280;68291;49.602;8.722;2023-08-20T08:51:36;99982.53;;;29.42
78905;BMP280;68291;49.602;8.722;2023-08-20T08:54:12;99991.56;;;29.56
78905;BMP280;68291;49.602;8.722;2023-08-20T08:56:54;99991.00;;;29.68
78905;BMP280;68291;49.602;8.722;2023-08-20T08:59:49;99990.59;;;29.79
78905;BMP280;68291;49.602;8.722;2023-08-20T09:02:54;100001.59;;;29.90
78905;BMP280;68291;49.602;8.722;2023-08-20T09:05:54;100004.00;;;29.99
78905;BMP280;68291;49.602;8.722;2023-08-20T09:09:07;100002.09;;;30.08
78905;BMP280;68291;49.602;8.722;2023-08-20T09:11:51;100009.63;;;30.19
78905;BMP280;68291;49.602;8.722;2023-08-20T09:14:49;100006.94;;;30.27
78905;BMP280;68291;49.602;8.722;2023-08-20T09:17:41;100001.50;;;30.34
78905;BMP280;68291;49.602;8.722;2023-08-20T09:20:38;100006.56;;;30.44
78905;BMP280;68291;49.602;8.722;2023-08-20T09:23:37;100001.78;;;30.54
78905;BMP280;68291;49.602;8.722;2023-08-20T09:26:25;100010.16;;;30.65
78905;BMP280;68291;49.602;8.722;2023-08-20T09:29:18;100012.19;;;30.77
78905;BMP280;68291;49.602;8.722;2023-08-20T09:32:35;100004.56;;;30.89
78905;BMP280;68291;49.602;8.722;2023-08-20T09:35:27;100008.22;;;31.02
78905;BMP280;68291;49.602;8.722;2023-08-20T09:38:07;100001.94;;;31.09
78905;BMP280;68291;49.602;8.722;2023-08-20T09:40:54;100004.34;;;31.19
78905;BMP280;68291;49.602;8.722;2023-08-20T09:43:46;100008.06;;;31.24
78905;BMP280;68291;49.602;8.722;2023-08-20T09:46:40;100002.22;;;31.29
78905;BMP280;68291;49.602;8.722;2023-08-20T09:49:22;100009.91;;;31.38
78905;BMP280;68291;49.602;8.722;2023-08-20T09:52:04;100009.41;;;31.49
78905;BMP280;68291;49.602;8.722;2023-08-20T09:55:03;100005.78;;;31.56
78905;BMP280;68291;49.602;8.722;2023-08-20T09:57:55;100000.53;;;31.63
78905;BMP280;68291;49.602;8.722;2023-08-20T10:01:07;99999.59;;;31.70
78905;BMP280;68291;49.602;8.722;2023-08-20T10:04:11;99996.44;;;31.81
78905;BMP280;68291;49.602;8.722;2023-08-20T10:06:44;100005.94;;;31.90
78905;BMP280;68291;49.602;8.722;2023-08-20T10:09:27;100005.38;;;31.94
78905;BMP280;68291;49.602;8.722;2023-08-20T10:12:07;99999.66;;;31.97
78905;BMP280;68291;49.602;8.722;2023-08-20T10:14:39;99999.06;;;32.02
78905;BMP280;68291;49.602;8.722;2023-08-20T10:17:14;99994.59;;;32.08
78905;BMP280;68291;49.602;8.722;2023-08-20T10:20:05;99987.28;;;32.17
78905;BMP280;68291;49.602;8.722;2023-08-20T10:22:50;99985.53;;;32.24
78905;BMP280;68291;49.602;8.722;2023-08-20T10:25:28;99987.22;;;32.31
78905;BMP280;68291;49.602;8.722;2023-08-20T10:28:25;99981.94;;;32.38
78905;BMP280;68291;49.602;8.722;2023-08-20T10:31:07;99985.22;;;32.40
78905;BMP280;68291;49.602;8.722;2023-08-20T10:34:33;99990.38;;;32.41
78905;BMP280;68291;49.602;8.722;2023-08-20T10:37:28;99990.22;;;32.49
78905;BMP280;68291;49.602;8.722;2023-08-20T10:40:54;99981.25;;;32.56
78905;BMP280;68291;49.602;8.722;2023-08-20T10:44:00;99984.94;;;32.62
78905;BMP280;68291;49.602;8.722;2023-08-20T10:46:31;99987.88;;;32.67
78905;BMP280;68291;49.602;8.722;2023-08-20T10:49:17;99984.59;;;32.71
78905;BMP280;68291;49.602;8.722;2023-08-20T10:52:46;99980.09;;;32.72
78905;BMP280;68291;49.602;8.722;2023-08-20T10:55:37;99984.00;;;32.76
78905;BMP280;68291;49.602;8.722;2023-08-20T10:58:19;99981.41;;;32.82
78905;BMP280;68291;49.602;8.722;2023-08-20T11:01:18;99981.03;;;32.91
78905;BMP280;68291;49.602;8.722;2023-08-20T11:04:32;99973.63;;;32.93
78905;BMP280;68291;49.602;8.722;2023-08-20T11:07:18;99974.69;;;32.99
78905;BMP280;68291;49.602;8.722;2023-08-20T11:10:22;99976.97;;;33.02
78905;BMP280;68291;49.602;8.722;2023-08-20T11:13:02;99975.31;;;33.07
78905;BMP280;68291;49.602;8.722;2023-08-20T11:15:51;99971.22;;;33.11
78905;BMP280;68291;49.602;8.722;2023-08-20T11:18:38;99967.97;;;33.15
78905;BMP280;68291;49.602;8.722;2023-08-20T11:21:22;99965.91;;;33.17
78905;BMP280;68291;49.602;8.722;2023-08-20T11:24:12;99978.28;;;33.25
78905;BMP280;68291;49.602;8.722;2023-08-20T11:27:50;99967.41;;;33.33
78905;BMP280;68291;49.602;8.722;2023-08-20T11:30:39;99977.91;;;33.41
78905;BMP280;68291;49.602;8.722;2023-08-20T11:33:44;99970.97;;;33.46
78905;BMP280;68291;49.602;8.722;2023-08-20T11:36:29;99971.34;;;33.49
78905;BMP280;68291;49.602;8.722;2023-08-20T11:39:12;99972.19;;;33.56
78905;BMP280;68291;49.602;8.722;2023-08-20T11:42:08;99973.03;;;33.63
78905;BMP280;68291;49.602;8.722;2023-08-20T11:44:56;99971.81;;;33.72
78905;BMP280;68291;49.602;8.722;2023-08-20T11:47:43;99965.88;;;33.83
78905;BMP280;68291;49.602;8.722;2023-08-20T11:50:28;99977.38;;;33.96
78905;BMP280;68291;49.602;8.722;2023-08-20T11:53:15;99976.56;;;34.09
78905;BMP280;68291;49.602;8.722;2023-08-20T11:56:07;99971.41;;;34.14
78905;BMP280;68291;49.602;8.722;2023-08-20T11:59:15;99965.66;;;34.10
78905;BMP280;68291;49.602;8.722;2023-08-20T12:02:42;99967.50;;;34.10
78905;BMP280;68291;49.602;8.722;2023-08-20T12:05:42;99963.56;;;34.18
78905;BMP280;68291;49.602;8.722;2023-08-20T12:08:20;99959.91;;;34.32
78905;BMP280;68291;49.602;8.722;2023-08-20T12:11:10;99957.81;;;34.47
78905;BMP280;68291;49.602;8.722;2023-08-20T12:13:51;99952.00;;;34.56
78905;BMP280;68291;49.602;8.722;2023-08-20T12:16:45;99945.84;;;34.56
78905;BMP280;68291;49.602;8.722;2023-08-20T12:19:34;99944.19;;;34.55
78905;BMP280;68291;49.602;8.722;2023-08-20T12:22:10;99945.00;;;34.55
78905;BMP280;68291;49.602;8.722;2023-08-20T12:24:54;99940.91;;;34.53
78905;BMP280;68291;49.602;8.722;2023-08-20T12:27:37;99934.09;;;34.57
78905;BMP280;68291;49.602;8.722;2023-08-20T12:30:36;99931.81;;;34.67
78905;BMP280;68291;49.602;8.722;2023-08-20T12:33:31;99930.13;;;34.79
78905;BMP280;68291;49.602;8.722;2023-08-20T12:37:01;99931.94;;;34.91
78905;BMP280;68291;49.602;8.722;2023-08-20T12:39:33;99932.91;;;35.03
78905;BMP280;68291;49.602;8.722;2023-08-20T12:42:30;99935.72;;;35.14
78905;BMP280;68291;49.602;8.722;2023-08-20T12:45:15;99929.06;;;35.29
78905;BMP280;68291;49.602;8.722;2023-08-20T12:48:06;99923.97;;;35.46
78905;BMP280;68291;49.602;8.722;2023-08-20T12:50:48;99928.81;;;35.61
78905;BMP280;68291;49.602;8.722;2023-08-20T12:53:48;99931.25;;;35.69
78905;BMP280;68291;49.602;8.722;2023-08-20T12:56:51;99921.72;;;35.73
78905;BMP280;68291;49.602;8.722;2023-08-20T12:59:34;99917.22;;;35.74
78905;BMP280;68291;49.602;8.722;2023-08-20T13:02:51;99920.88;;;35.79
78905;BMP280;68291;49.602;8.722;2023-08-20T13:05:30;99916.94;;;35.99
78905;BMP280;68291;49.602;8.722;2023-08-20T13:08:17;99912.78;;;36.45
78905;BMP280;68291;49.602;8.722;2023-08-20T13:11:06;99907.94;;;37.18
78905;BMP280;68291;49.602;8.722;2023-08-20T13:13:59;99915.25;;;37.92
78905;BMP280;68291;49.602;8.722;2023-08-20T13:16:41;99907.63;;;38.57
78905;BMP280;68291;49.602;8.722;2023-08-20T13:19:30;99893.75;;;39.15
78905;BMP280;68291;49.602;8.722;2023-08-20T13:22:39;99910.97;;;39.75
78905;BMP280;68291;49.602;8.722;2023-08-20T13:25:16;99895.38;;;40.14
78905;BMP280;68291;49.602;8.722;2023-08-20T13:27:58;99894.97;;;40.59
78905;BMP280;68291;49.602;8.722;2023-08-20T13:30:42;99903.91;;;41.07
78905;BMP280;68291;49.602;8.722;2023-08-20T13:33:22;99893.47;;;41.42
78905;BMP280;68291;49.602;8.722;2023-08-20T13:35:56;99904.38;;;41.83
78905;BMP280;68291;49.602;8.722;2023-08-20T13:38:39;99902.25;;;42.26
78905;BMP280;68291;49.602;8.722;2023-08-20T13:41:25;99903.22;;;42.56
78905;BMP280;68291;49.602;8.722;2023-08-20T13:44:01;99899.91;;;42.44
78905;BMP280;68291;49.602;8.722;2023-08-20T13:46:40;99902.91;;;42.01
78905;BMP280;68291;49.602;8.722;2023-08-20T13:49:23;99899.19;;;41.76
78905;BMP280;68291;49.602;8.722;2023-08-20T13:52:21;99899.50;;;41.80
78905;BMP280;68291;49.602;8.722;2023-08-20T13:55:21;99894.78;;;42.01
78905;BMP280;68291;49.602;8.722;2023-08-20T13:58:37;99898.47;;;41.91
78905;BMP280;68291;49.602;8.722;2023-08-20T14:01:34;99892.13;;;42.11
78905;BMP280;68291;49.602;8.722;2023-08-20T14:04:20;99896.38;;;42.38
78905;BMP280;68291;49.602;8.722;2023-08-20T14:07:06;99882.16;;;42.72
78905;BMP280;68291;49.602;8.722;2023-08-20T14:09:51;99877.88;;;42.91
78905;BMP280;68291;49.602;8.722;2023-08-20T14:12:22;99878.47;;;42.98
78905;BMP280;68291;49.602;8.722;2023-08-20T14:15:09;99875.28;;;43.26
78905;BMP280;68291;49.602;8.722;2023-08-20T14:17:52;99887.22;;;43.59
78905;BMP280;68291;49.602;8.722;2023-08-20T14:20:37;99875.28;;;43.95
78905;BMP280;68291;49.602;8.722;2023-08-20T14:23:26;99884.41;;;44.38
78905;BMP280;68291;49.602;8.722;2023-08-20T14:26:29;99871.47;;;44.78
78905;BMP280;68291;49.602;8.722;2023-08-20T14:29:03;99872.16;;;45.03
78905;BMP280;68291;49.602;8.722;2023-08-20T14:31:40;99878.13;;;45.05
78905;BMP280;68291;49.602;8.722;2023-08-20T14:34:20;99872.69;;;45.05
78905;BMP280;68291;49.602;8.722;2023-08-20T14:37:06;99879.78;;;45.06
78905;BMP280;68291;49.602;8.722;2023-08-20T14:40:12;99864.28;;;45.40
78905;BMP280;68291;49.602;8.722;2023-08-20T14:42:56;99868.50;;;45.55
78905;BMP280;68291;49.602;8.722;2023-08-20T14:45:42;99867.53;;;45.75
78905;BMP280;68291;49.602;8.722;2023-08-20T14:48:59;99864.19;;;46.11
78905;BMP280;68291;49.602;8.722;2023-08-20T14:52:23;99866.56;;;46.40
78905;BMP280;68291;49.602;8.722;2023-08-20T14:55:07;99865.22;;;46.61
78905;BMP280;68291;49.602;8.722;2023-08-20T14:57:46;99855.03;;;46.66
78905;BMP280;68291;49.602;8.722;2023-08-20T15:00:34;99854.56;;;46.83
78905;BMP280;68291;49.602;8.722;2023-08-20T15:03:19;99850.81;;;46.79
78905;BMP280;68291;49.602;8.722;2023-08-20T15:06:15;99852.94;;;46.82
78905;BMP280;68291;49.602;8.722;2023-08-20T15:09:04;99850.44;;;46.85
78905;BMP280;68291;49.602;8.722;2023-08-20T15:11:59;99851.84;;;46.83
78905;BMP280;68291;49.602;8.722;2023-08-20T15:14:59;99845.28;;;46.84
78905;BMP280;68291;49.602;8.722;2023-08-20T15:17:41;99850.56;;;46.75
78905;BMP280;68291;49.602;8.722;2023-08-20T15:20:40;99853.59;;;46.74
78905;BMP280;68291;49.602;8.722;2023-08-20T15:23:27;99851.78;;;46.64
78905;BMP280;68291;49.602;8.722;2023-08-20T15:26:22;99853.31;;;46.75
78905;BMP280;68291;49.602;8.722;2023-08-20T15:29:00;99846.91;;;46.85
78905;BMP280;68291;49.602;8.722;2023-08-20T15:31:49;99839.44;;;46.90
78905;BMP280;68291;49.602;8.722;2023-08-20T15:34:29;99841.50;;;46.98
78905;BMP280;68291;49.602;8.722;2023-08-20T15:37:15;99842.16;;;46.72
78905;BMP280;68291;49.602;8.722;2023-08-20T15:39:48;99834.88;;;46.67
78905;BMP280;68291;49.602;8.722;2023-08-20T15:43:02;99836.38;;;46.73
78905;BMP280;68291;49.602;8.722;2023-08-20T15:46:05;99845.19;;;46.88
78905;BMP280;68291;49.602;8.722;2023-08-20T15:49:01;99832.63;;;46.69
78905;BMP280;68291;49.602;8.722;2023-08-20T15:51:43;99849.16;;;46.36
78905;BMP280;68291;49.602;8.722;2023-08-20T15:54:23;99845.09;;;46.11
78905;BMP280;68291;49.602;8.722;2023-08-20T15:57:06;99849.25;;;45.80
78905;BMP280;68291;49.602;8.722;2023-08-20T16:00:09;99855.31;;;45.67
78905;BMP280;68291;49.602;8.722;2023-08-20T16:03:02;99847.13;;;45.72
78905;BMP280;68291;49.602;8.722;2023-08-20T16:05:44;99851.66;;;45.53
78905;BMP280;68291;49.602;8.722;2023-08-20T16:08:34;99844.00;;;45.22
78905;BMP280;68291;49.602;8.722;2023-08-20T16:11:34;99843.41;;;44.87
78905;BMP280;68291;49.602;8.722;2023-08-20T16:14:26;99835.94;;;44.65
78905;BMP280;68291;49.602;8.722;2023-08-20T16:17:56;99838.47;;;44.41
78905;BMP280;68291;49.602;8.722;2023-08-20T16:20:36;99838.81;;;44.20
78905;BMP280;68291;49.602;8.722;2023-08-20T16:23:23;99832.63;;;44.00
78905;BMP280;68291;49.602;8.722;2023-08-20T16:26:19;99834.28;;;43.76
78905;BMP280;68291;49.602;8.722;2023-08-20T16:29:19;99838.94;;;43.56
78905;BMP280;68291;49.602;8.722;2023-08-20T16:32:13;99842.72;;;43.35
78905;BMP280;68291;49.602;8.722;2023-08-20T16:35:21;99843.75;;;43.10